CDD3 weather

Ste-Agnès-de-Dundee Airport
Ste-Agnès-de-Dundee, Quebec, Canada

Public forecast

Using degrees Celsius for public forecast. Weather courtesy of forecast.io.

METAR (pilot weather report)

Closest report is Massena International Richards Field, 22.4 nm (41.4 km) WSW. Retrieved 2019/05/22 17:53 UTC (38 minutes ago):

KMSS 221753Z AUTO 36003KT 10SM CLR 19/02 A3026 RMK AO2 SLP246 T01890022 10189 20122 58017

TAF (pilot weather forecast)

Closest forecast is Massena International Richards Field, 22.4 nm (41.4 km) WSW. Retrieved 2019/05/22 18:22 UTC (9 minutes ago):

TAF KMSS 221720Z 2218/2318 VRB04KT P6SM FEW200 FM230000 VRB04KT P6SM BKN150 FM231600 15005KT P6SM VCSH OVC040